Terminal Aerodrome Forecast
Issued by NWS

Home | Current Version | Previous Version | Text Only | Print | Product List | Glossary On
Versions: 1 2 3 4 5 6 7 8 9 10 11 12 13 14 15 16 17 18
000
FTUS41 KRNK 311723
TAFBCB
TAF
KBCB 311723Z 3118/0118 24003KT P6SM SCT028 OVC040
     FM312100 00000KT 6SM -RA OVC025
     FM010300 VRB03KT 2SM RA BR OVC012
     FM010800 03007KT 1SM -RASN OVC007
     FM011500 36010G18KT P6SM OVC015=

USA.gov is the U.S. government's official web portal to all federal, state and local government web resources and services.